sensor_id;sensor_type;location;lat;lon;timestamp;P1;durP1;ratioP1;P2;durP2;ratioP2
54561;SDS011;69047;53.358;-1.486;2024-03-07T00:00:05;107.47;;;42.53;;
54561;SDS011;69047;53.358;-1.486;2024-03-07T00:02:41;101.40;;;43.20;;
54561;SDS011;69047;53.358;-1.486;2024-03-07T00:05:07;106.45;;;43.72;;
54561;SDS011;69047;53.358;-1.486;2024-03-07T00:07:33;96.93;;;43.85;;
54561;SDS011;69047;53.358;-1.486;2024-03-07T00:09:59;97.63;;;41.58;;
54561;SDS011;69047;53.358;-1.486;2024-03-07T00:12:25;91.38;;;41.70;;
54561;SDS011;69047;53.358;-1.486;2024-03-07T00:14:52;91.38;;;40.63;;
54561;SDS011;69047;53.358;-1.486;2024-03-07T00:17:18;90.85;;;39.67;;
54561;SDS011;69047;53.358;-1.486;2024-03-07T00:19:44;88.28;;;41.03;;
54561;SDS011;69047;53.358;-1.486;2024-03-07T00:22:10;96.82;;;41.00;;
54561;SDS011;69047;53.358;-1.486;2024-03-07T00:24:35;86.43;;;40.30;;
54561;SDS011;69047;53.358;-1.486;2024-03-07T00:27:02;92.10;;;39.42;;
54561;SDS011;69047;53.358;-1.486;2024-03-07T00:29:28;99.35;;;43.83;;
54561;SDS011;69047;53.358;-1.486;2024-03-07T00:31:54;97.68;;;43.55;;
54561;SDS011;69047;53.358;-1.486;2024-03-07T00:34:21;93.07;;;41.15;;
54561;SDS011;69047;53.358;-1.486;2024-03-07T00:36:48;103.03;;;43.95;;
54561;SDS011;69047;53.358;-1.486;2024-03-07T00:39:14;114.47;;;46.58;;
54561;SDS011;69047;53.358;-1.486;2024-03-07T00:41:39;101.20;;;44.20;;
54561;SDS011;69047;53.358;-1.486;2024-03-07T00:44:06;102.22;;;45.60;;
54561;SDS011;69047;53.358;-1.486;2024-03-07T00:46:34;99.45;;;42.53;;
54561;SDS011;69047;53.358;-1.486;2024-03-07T00:49:00;94.30;;;41.95;;
54561;SDS011;69047;53.358;-1.486;2024-03-07T00:51:26;103.88;;;43.80;;
54561;SDS011;69047;53.358;-1.486;2024-03-07T00:53:51;106.30;;;44.47;;
54561;SDS011;69047;53.358;-1.486;2024-03-07T00:56:17;99.45;;;44.85;;
54561;SDS011;69047;53.358;-1.486;2024-03-07T00:58:42;102.45;;;43.72;;
54561;SDS011;69047;53.358;-1.486;2024-03-07T01:01:07;98.85;;;43.65;;
54561;SDS011;69047;53.358;-1.486;2024-03-07T01:03:33;95.88;;;39.97;;
54561;SDS011;69047;53.358;-1.486;2024-03-07T01:05:59;87.82;;;39.53;;
54561;SDS011;69047;53.358;-1.486;2024-03-07T01:08:24;86.93;;;38.70;;
54561;SDS011;69047;53.358;-1.486;2024-03-07T01:10:50;82.53;;;39.88;;
54561;SDS011;69047;53.358;-1.486;2024-03-07T01:13:16;80.10;;;39.92;;
54561;SDS011;69047;53.358;-1.486;2024-03-07T01:15:47;88.25;;;39.50;;
54561;SDS011;69047;53.358;-1.486;2024-03-07T01:18:13;91.32;;;39.70;;
54561;SDS011;69047;53.358;-1.486;2024-03-07T01:20:39;81.05;;;38.25;;
54561;SDS011;69047;53.358;-1.486;2024-03-07T01:23:04;97.50;;;41.08;;
54561;SDS011;69047;53.358;-1.486;2024-03-07T01:25:30;92.70;;;40.47;;
54561;SDS011;69047;53.358;-1.486;2024-03-07T01:27:59;89.65;;;40.15;;
54561;SDS011;69047;53.358;-1.486;2024-03-07T01:30:30;84.20;;;38.95;;
54561;SDS011;69047;53.358;-1.486;2024-03-07T01:32:56;96.75;;;42.67;;
54561;SDS011;69047;53.358;-1.486;2024-03-07T01:35:21;91.43;;;42.45;;
54561;SDS011;69047;53.358;-1.486;2024-03-07T01:37:47;102.53;;;43.33;;
54561;SDS011;69047;53.358;-1.486;2024-03-07T01:40:12;100.38;;;41.17;;
54561;SDS011;69047;53.358;-1.486;2024-03-07T01:42:39;96.20;;;43.05;;
54561;SDS011;69047;53.358;-1.486;2024-03-07T01:45:05;95.80;;;42.20;;
54561;SDS011;69047;53.358;-1.486;2024-03-07T01:47:34;88.68;;;41.42;;
54561;SDS011;69047;53.358;-1.486;2024-03-07T01:50:01;106.97;;;45.92;;
54561;SDS011;69047;53.358;-1.486;2024-03-07T01:52:29;99.80;;;42.80;;
54561;SDS011;69047;53.358;-1.486;2024-03-07T01:54:56;98.72;;;43.30;;
54561;SDS011;69047;53.358;-1.486;2024-03-07T01:57:22;100.80;;;43.63;;
54561;SDS011;69047;53.358;-1.486;2024-03-07T01:59:48;102.93;;;42.50;;
54561;SDS011;69047;53.358;-1.486;2024-03-07T02:02:15;94.10;;;39.85;;
54561;SDS011;69047;53.358;-1.486;2024-03-07T02:04:41;93.72;;;42.22;;
54561;SDS011;69047;53.358;-1.486;2024-03-07T02:07:07;93.32;;;43.03;;
54561;SDS011;69047;53.358;-1.486;2024-03-07T02:09:36;84.30;;;40.35;;
54561;SDS011;69047;53.358;-1.486;2024-03-07T02:12:02;94.43;;;41.22;;
54561;SDS011;69047;53.358;-1.486;2024-03-07T02:14:32;90.32;;;40.20;;
54561;SDS011;69047;53.358;-1.486;2024-03-07T02:16:59;82.88;;;39.28;;
54561;SDS011;69047;53.358;-1.486;2024-03-07T02:19:24;95.03;;;42.20;;
54561;SDS011;69047;53.358;-1.486;2024-03-07T02:21:51;103.35;;;42.38;;
54561;SDS011;69047;53.358;-1.486;2024-03-07T02:24:17;116.50;;;44.92;;
54561;SDS011;69047;53.358;-1.486;2024-03-07T02:26:42;116.93;;;47.78;;
54561;SDS011;69047;53.358;-1.486;2024-03-07T02:29:09;127.40;;;48.70;;
54561;SDS011;69047;53.358;-1.486;2024-03-07T02:31:39;133.05;;;49.40;;
54561;SDS011;69047;53.358;-1.486;2024-03-07T02:34:06;141.98;;;53.20;;
54561;SDS011;69047;53.358;-1.486;2024-03-07T02:36:35;159.00;;;54.67;;
54561;SDS011;69047;53.358;-1.486;2024-03-07T02:39:01;152.82;;;53.53;;
54561;SDS011;69047;53.358;-1.486;2024-03-07T02:41:27;195.25;;;59.72;;
54561;SDS011;69047;53.358;-1.486;2024-03-07T02:43:52;159.23;;;54.13;;
54561;SDS011;69047;53.358;-1.486;2024-03-07T02:46:18;142.38;;;55.00;;
54561;SDS011;69047;53.358;-1.486;2024-03-07T02:48:44;149.80;;;55.45;;
54561;SDS011;69047;53.358;-1.486;2024-03-07T02:51:10;143.05;;;53.30;;
54561;SDS011;69047;53.358;-1.486;2024-03-07T02:53:36;149.98;;;55.00;;
54561;SDS011;69047;53.358;-1.486;2024-03-07T02:56:03;163.07;;;55.35;;
54561;SDS011;69047;53.358;-1.486;2024-03-07T02:58:33;154.13;;;52.22;;
54561;SDS011;69047;53.358;-1.486;2024-03-07T03:00:59;160.30;;;53.88;;
54561;SDS011;69047;53.358;-1.486;2024-03-07T03:03:25;133.60;;;50.13;;
54561;SDS011;69047;53.358;-1.486;2024-03-07T03:05:51;156.10;;;50.92;;
54561;SDS011;69047;53.358;-1.486;2024-03-07T03:08:17;154.45;;;50.88;;
54561;SDS011;69047;53.358;-1.486;2024-03-07T03:10:42;153.45;;;53.05;;
54561;SDS011;69047;53.358;-1.486;2024-03-07T03:13:09;164.25;;;53.33;;
54561;SDS011;69047;53.358;-1.486;2024-03-07T03:15:35;134.57;;;48.15;;
54561;SDS011;69047;53.358;-1.486;2024-03-07T03:18:00;161.38;;;49.58;;
54561;SDS011;69047;53.358;-1.486;2024-03-07T03:20:26;151.95;;;50.90;;
54561;SDS011;69047;53.358;-1.486;2024-03-07T03:22:58;161.07;;;53.83;;
54561;SDS011;69047;53.358;-1.486;2024-03-07T03:25:24;151.90;;;50.03;;
54561;SDS011;69047;53.358;-1.486;2024-03-07T03:27:51;182.95;;;52.55;;
54561;SDS011;69047;53.358;-1.486;2024-03-07T03:30:17;159.10;;;50.63;;
54561;SDS011;69047;53.358;-1.486;2024-03-07T03:32:46;171.57;;;51.58;;
54561;SDS011;69047;53.358;-1.486;2024-03-07T03:35:15;176.23;;;54.13;;
54561;SDS011;69047;53.358;-1.486;2024-03-07T03:37:43;201.95;;;54.58;;
54561;SDS011;69047;53.358;-1.486;2024-03-07T03:40:09;180.75;;;52.40;;
54561;SDS011;69047;53.358;-1.486;2024-03-07T03:42:36;169.63;;;50.13;;
54561;SDS011;69047;53.358;-1.486;2024-03-07T03:45:02;172.95;;;52.53;;
54561;SDS011;69047;53.358;-1.486;2024-03-07T03:47:36;191.85;;;54.20;;
54561;SDS011;69047;53.358;-1.486;2024-03-07T03:50:05;198.63;;;54.85;;
54561;SDS011;69047;53.358;-1.486;2024-03-07T03:52:34;189.23;;;55.15;;
54561;SDS011;69047;53.358;-1.486;2024-03-07T03:55:00;172.85;;;51.85;;
54561;SDS011;69047;53.358;-1.486;2024-03-07T03:57:27;151.35;;;46.83;;
54561;SDS011;69047;53.358;-1.486;2024-03-07T03:59:53;140.55;;;42.75;;
54561;SDS011;69047;53.358;-1.486;2024-03-07T04:02:19;129.98;;;42.00;;
54561;SDS011;69047;53.358;-1.486;2024-03-07T04:04:46;126.70;;;42.58;;
54561;SDS011;69047;53.358;-1.486;2024-03-07T04:07:11;145.77;;;44.90;;
54561;SDS011;69047;53.358;-1.486;2024-03-07T04:09:43;137.50;;;43.85;;
54561;SDS011;69047;53.358;-1.486;2024-03-07T04:12:10;142.02;;;44.35;;
54561;SDS011;69047;53.358;-1.486;2024-03-07T04:14:41;128.27;;;41.13;;
54561;SDS011;69047;53.358;-1.486;2024-03-07T04:17:08;123.80;;;41.92;;
54561;SDS011;69047;53.358;-1.486;2024-03-07T04:19:35;129.25;;;42.17;;
54561;SDS011;69047;53.358;-1.486;2024-03-07T04:22:01;122.25;;;42.08;;
54561;SDS011;69047;53.358;-1.486;2024-03-07T04:24:28;112.65;;;39.83;;
54561;SDS011;69047;53.358;-1.486;2024-03-07T04:26:54;122.72;;;39.28;;
54561;SDS011;69047;53.358;-1.486;2024-03-07T04:29:20;136.02;;;40.22;;
54561;SDS011;69047;53.358;-1.486;2024-03-07T04:31:45;133.35;;;41.78;;
54561;SDS011;69047;53.358;-1.486;2024-03-07T04:34:12;124.72;;;40.90;;
54561;SDS011;69047;53.358;-1.486;2024-03-07T04:36:38;139.75;;;43.88;;
54561;SDS011;69047;53.358;-1.486;2024-03-07T04:39:03;131.13;;;40.65;;
54561;SDS011;69047;53.358;-1.486;2024-03-07T04:41:30;126.63;;;40.47;;
54561;SDS011;69047;53.358;-1.486;2024-03-07T04:43:55;117.68;;;38.95;;
54561;SDS011;69047;53.358;-1.486;2024-03-07T04:46:20;149.60;;;45.13;;
54561;SDS011;69047;53.358;-1.486;2024-03-07T04:48:46;149.27;;;43.58;;
54561;SDS011;69047;53.358;-1.486;2024-03-07T04:51:11;127.07;;;39.70;;
54561;SDS011;69047;53.358;-1.486;2024-03-07T04:53:37;126.68;;;40.97;;
54561;SDS011;69047;53.358;-1.486;2024-03-07T04:56:07;132.65;;;38.90;;
54561;SDS011;69047;53.358;-1.486;2024-03-07T04:58:34;124.32;;;40.05;;
54561;SDS011;69047;53.358;-1.486;2024-03-07T05:01:00;117.05;;;37.90;;
54561;SDS011;69047;53.358;-1.486;2024-03-07T05:03:27;120.07;;;36.97;;
54561;SDS011;69047;53.358;-1.486;2024-03-07T05:05:53;134.45;;;37.17;;
54561;SDS011;69047;53.358;-1.486;2024-03-07T05:08:18;118.32;;;38.33;;
54561;SDS011;69047;53.358;-1.486;2024-03-07T05:10:44;127.50;;;37.60;;
54561;SDS011;69047;53.358;-1.486;2024-03-07T05:13:09;121.50;;;37.92;;
54561;SDS011;69047;53.358;-1.486;2024-03-07T05:15:35;124.40;;;37.13;;
54561;SDS011;69047;53.358;-1.486;2024-03-07T05:18:01;107.68;;;36.75;;
54561;SDS011;69047;53.358;-1.486;2024-03-07T05:20:26;117.03;;;37.25;;
54561;SDS011;69047;53.358;-1.486;2024-03-07T05:22:53;128.02;;;38.42;;
54561;SDS011;69047;53.358;-1.486;2024-03-07T05:25:19;128.68;;;42.03;;
54561;SDS011;69047;53.358;-1.486;2024-03-07T05:27:47;132.35;;;38.83;;
54561;SDS011;69047;53.358;-1.486;2024-03-07T05:30:15;139.73;;;40.78;;
54561;SDS011;69047;53.358;-1.486;2024-03-07T05:32:40;130.25;;;41.95;;
54561;SDS011;69047;53.358;-1.486;2024-03-07T05:35:06;128.52;;;39.22;;
54561;SDS011;69047;53.358;-1.486;2024-03-07T05:37:32;131.07;;;40.35;;
54561;SDS011;69047;53.358;-1.486;2024-03-07T05:39:58;130.77;;;40.65;;
54561;SDS011;69047;53.358;-1.486;2024-03-07T05:42:23;121.43;;;37.20;;
54561;SDS011;69047;53.358;-1.486;2024-03-07T05:44:50;120.93;;;39.35;;
54561;SDS011;69047;53.358;-1.486;2024-03-07T05:47:16;126.85;;;38.92;;
54561;SDS011;69047;53.358;-1.486;2024-03-07T05:49:42;129.77;;;41.45;;
54561;SDS011;69047;53.358;-1.486;2024-03-07T05:52:08;134.00;;;39.38;;
54561;SDS011;69047;53.358;-1.486;2024-03-07T05:54:34;130.45;;;38.65;;
54561;SDS011;69047;53.358;-1.486;2024-03-07T05:57:01;144.30;;;43.20;;
54561;SDS011;69047;53.358;-1.486;2024-03-07T05:59:26;135.30;;;40.30;;
54561;SDS011;69047;53.358;-1.486;2024-03-07T06:01:58;149.80;;;43.20;;
54561;SDS011;69047;53.358;-1.486;2024-03-07T06:04:24;159.75;;;42.95;;
54561;SDS011;69047;53.358;-1.486;2024-03-07T06:06:49;149.88;;;44.28;;
54561;SDS011;69047;53.358;-1.486;2024-03-07T06:09:15;160.95;;;43.47;;
54561;SDS011;69047;53.358;-1.486;2024-03-07T06:11:46;177.02;;;46.30;;
54561;SDS011;69047;53.358;-1.486;2024-03-07T06:14:12;193.75;;;47.17;;
54561;SDS011;69047;53.358;-1.486;2024-03-07T06:16:38;215.70;;;50.70;;
54561;SDS011;69047;53.358;-1.486;2024-03-07T06:19:05;194.32;;;49.10;;
54561;SDS011;69047;53.358;-1.486;2024-03-07T06:21:32;219.18;;;50.00;;
54561;SDS011;69047;53.358;-1.486;2024-03-07T06:23:58;274.60;;;53.15;;
54561;SDS011;69047;53.358;-1.486;2024-03-07T06:29:17;219.95;;;49.70;;
54561;SDS011;69047;53.358;-1.486;2024-03-07T06:31:43;178.88;;;45.00;;
54561;SDS011;69047;53.358;-1.486;2024-03-07T06:34:11;197.98;;;48.80;;
54561;SDS011;69047;53.358;-1.486;2024-03-07T06:36:38;224.90;;;48.15;;
54561;SDS011;69047;53.358;-1.486;2024-03-07T06:39:03;221.52;;;48.63;;
54561;SDS011;69047;53.358;-1.486;2024-03-07T06:41:32;207.68;;;49.95;;
54561;SDS011;69047;53.358;-1.486;2024-03-07T06:43:58;189.07;;;46.42;;
54561;SDS011;69047;53.358;-1.486;2024-03-07T06:46:23;182.55;;;45.75;;
54561;SDS011;69047;53.358;-1.486;2024-03-07T06:48:49;181.80;;;46.08;;
54561;SDS011;69047;53.358;-1.486;2024-03-07T06:51:16;192.13;;;44.55;;
54561;SDS011;69047;53.358;-1.486;2024-03-07T06:53:42;190.85;;;46.67;;
54561;SDS011;69047;53.358;-1.486;2024-03-07T06:56:08;195.43;;;48.78;;
54561;SDS011;69047;53.358;-1.486;2024-03-07T06:58:34;208.35;;;47.58;;
54561;SDS011;69047;53.358;-1.486;2024-03-07T07:00:59;179.02;;;46.35;;
54561;SDS011;69047;53.358;-1.486;2024-03-07T07:03:26;193.05;;;47.55;;
54561;SDS011;69047;53.358;-1.486;2024-03-07T07:05:53;162.40;;;43.50;;
54561;SDS011;69047;53.358;-1.486;2024-03-07T07:08:19;145.07;;;39.80;;
54561;SDS011;69047;53.358;-1.486;2024-03-07T07:10:45;157.25;;;40.78;;
54561;SDS011;69047;53.358;-1.486;2024-03-07T07:13:10;140.90;;;37.08;;
54561;SDS011;69047;53.358;-1.486;2024-03-07T07:15:38;130.65;;;36.65;;
54561;SDS011;69047;53.358;-1.486;2024-03-07T07:18:04;134.68;;;37.28;;
54561;SDS011;69047;53.358;-1.486;2024-03-07T07:20:31;136.63;;;37.40;;
54561;SDS011;69047;53.358;-1.486;2024-03-07T07:22:57;121.85;;;38.05;;
54561;SDS011;69047;53.358;-1.486;2024-03-07T07:25:25;108.32;;;33.85;;
54561;SDS011;69047;53.358;-1.486;2024-03-07T07:27:52;117.45;;;33.05;;
54561;SDS011;69047;53.358;-1.486;2024-03-07T07:30:18;118.85;;;38.63;;
54561;SDS011;69047;53.358;-1.486;2024-03-07T07:32:48;121.80;;;38.45;;
54561;SDS011;69047;53.358;-1.486;2024-03-07T07:35:14;137.18;;;40.47;;
54561;SDS011;69047;53.358;-1.486;2024-03-07T07:37:40;135.02;;;40.05;;
54561;SDS011;69047;53.358;-1.486;2024-03-07T07:40:07;162.90;;;39.95;;
54561;SDS011;69047;53.358;-1.486;2024-03-07T07:42:36;153.35;;;44.20;;
54561;SDS011;69047;53.358;-1.486;2024-03-07T07:45:05;184.65;;;48.13;;
54561;SDS011;69047;53.358;-1.486;2024-03-07T07:47:39;195.40;;;47.20;;
54561;SDS011;69047;53.358;-1.486;2024-03-07T07:50:10;189.32;;;44.78;;
54561;SDS011;69047;53.358;-1.486;2024-03-07T07:52:42;180.82;;;46.10;;
54561;SDS011;69047;53.358;-1.486;2024-03-07T07:55:11;154.05;;;46.03;;
54561;SDS011;69047;53.358;-1.486;2024-03-07T07:57:42;157.38;;;42.88;;
54561;SDS011;69047;53.358;-1.486;2024-03-07T08:00:12;159.77;;;42.75;;
54561;SDS011;69047;53.358;-1.486;2024-03-07T08:05:19;174.05;;;44.95;;
54561;SDS011;69047;53.358;-1.486;2024-03-07T08:07:47;146.73;;;38.58;;
54561;SDS011;69047;53.358;-1.486;2024-03-07T08:10:13;161.73;;;41.72;;
54561;SDS011;69047;53.358;-1.486;2024-03-07T08:12:40;136.35;;;39.00;;
54561;SDS011;69047;53.358;-1.486;2024-03-07T08:15:09;138.95;;;40.60;;
54561;SDS011;69047;53.358;-1.486;2024-03-07T08:18:01;125.28;;;35.90;;
54561;SDS011;69047;53.358;-1.486;2024-03-07T08:20:27;117.05;;;39.40;;
54561;SDS011;69047;53.358;-1.486;2024-03-07T08:22:56;130.90;;;39.03;;
54561;SDS011;69047;53.358;-1.486;2024-03-07T08:25:22;87.70;;;31.65;;
54561;SDS011;69047;53.358;-1.486;2024-03-07T08:27:50;86.93;;;32.05;;
54561;SDS011;69047;53.358;-1.486;2024-03-07T08:30:17;82.20;;;28.63;;
54561;SDS011;69047;53.358;-1.486;2024-03-07T08:32:46;95.47;;;30.27;;
54561;SDS011;69047;53.358;-1.486;2024-03-07T08:35:27;87.90;;;32.40;;
54561;SDS011;69047;53.358;-1.486;2024-03-07T08:38:00;88.38;;;27.08;;
54561;SDS011;69047;53.358;-1.486;2024-03-07T08:40:27;93.57;;;27.45;;
54561;SDS011;69047;53.358;-1.486;2024-03-07T08:42:59;74.25;;;25.55;;
54561;SDS011;69047;53.358;-1.486;2024-03-07T08:45:29;78.95;;;24.92;;
54561;SDS011;69047;53.358;-1.486;2024-03-07T08:47:59;85.43;;;26.05;;
54561;SDS011;69047;53.358;-1.486;2024-03-07T08:50:24;89.25;;;26.40;;
54561;SDS011;69047;53.358;-1.486;2024-03-07T08:52:51;81.32;;;26.45;;
54561;SDS011;69047;53.358;-1.486;2024-03-07T08:55:22;96.72;;;27.25;;
54561;SDS011;69047;53.358;-1.486;2024-03-07T08:57:49;89.88;;;28.25;;
54561;SDS011;69047;53.358;-1.486;2024-03-07T09:00:16;111.53;;;29.17;;
54561;SDS011;69047;53.358;-1.486;2024-03-07T09:05:18;85.47;;;26.40;;
54561;SDS011;69047;53.358;-1.486;2024-03-07T09:07:45;90.22;;;25.52;;
54561;SDS011;69047;53.358;-1.486;2024-03-07T09:10:12;93.10;;;29.05;;
54561;SDS011;69047;53.358;-1.486;2024-03-07T09:12:39;91.80;;;27.98;;
54561;SDS011;69047;53.358;-1.486;2024-03-07T09:15:05;89.93;;;27.08;;
54561;SDS011;69047;53.358;-1.486;2024-03-07T09:17:35;92.18;;;27.85;;
54561;SDS011;69047;53.358;-1.486;2024-03-07T09:20:02;87.50;;;26.67;;
54561;SDS011;69047;53.358;-1.486;2024-03-07T09:22:30;87.03;;;26.27;;
54561;SDS011;69047;53.358;-1.486;2024-03-07T09:24:56;82.30;;;26.38;;
54561;SDS011;69047;53.358;-1.486;2024-03-07T09:27:22;88.30;;;26.55;;
54561;SDS011;69047;53.358;-1.486;2024-03-07T09:29:47;82.47;;;25.73;;
54561;SDS011;69047;53.358;-1.486;2024-03-07T09:32:13;82.68;;;22.48;;
54561;SDS011;69047;53.358;-1.486;2024-03-07T09:34:39;76.53;;;24.63;;
54561;SDS011;69047;53.358;-1.486;2024-03-07T09:37:04;91.72;;;27.73;;
54561;SDS011;69047;53.358;-1.486;2024-03-07T09:39:33;98.30;;;27.63;;
54561;SDS011;69047;53.358;-1.486;2024-03-07T09:42:00;86.57;;;26.85;;
54561;SDS011;69047;53.358;-1.486;2024-03-07T09:44:26;97.85;;;27.83;;
54561;SDS011;69047;53.358;-1.486;2024-03-07T09:46:54;85.90;;;26.48;;
54561;SDS011;69047;53.358;-1.486;2024-03-07T09:49:20;86.78;;;26.95;;
54561;SDS011;69047;53.358;-1.486;2024-03-07T09:51:47;94.75;;;28.75;;
54561;SDS011;69047;53.358;-1.486;2024-03-07T09:54:24;71.50;;;26.05;;
54561;SDS011;69047;53.358;-1.486;2024-03-07T09:56:59;90.22;;;27.17;;
54561;SDS011;69047;53.358;-1.486;2024-03-07T09:59:28;87.28;;;29.25;;
54561;SDS011;69047;53.358;-1.486;2024-03-07T10:01:54;93.65;;;27.88;;
54561;SDS011;69047;53.358;-1.486;2024-03-07T10:04:42;91.13;;;27.80;;
54561;SDS011;69047;53.358;-1.486;2024-03-07T10:07:14;108.10;;;30.35;;
54561;SDS011;69047;53.358;-1.486;2024-03-07T10:09:41;108.07;;;31.70;;
54561;SDS011;69047;53.358;-1.486;2024-03-07T10:12:07;110.45;;;32.08;;
54561;SDS011;69047;53.358;-1.486;2024-03-07T10:14:47;112.47;;;30.20;;
54561;SDS011;69047;53.358;-1.486;2024-03-07T10:17:15;90.25;;;27.05;;
54561;SDS011;69047;53.358;-1.486;2024-03-07T10:19:41;98.18;;;29.63;;
54561;SDS011;69047;53.358;-1.486;2024-03-07T10:22:07;81.20;;;26.73;;
54561;SDS011;69047;53.358;-1.486;2024-03-07T10:24:32;87.30;;;25.42;;
54561;SDS011;69047;53.358;-1.486;2024-03-07T10:26:58;88.18;;;25.33;;
54561;SDS011;69047;53.358;-1.486;2024-03-07T10:29:25;83.05;;;27.15;;
54561;SDS011;69047;53.358;-1.486;2024-03-07T10:31:50;95.30;;;25.85;;
54561;SDS011;69047;53.358;-1.486;2024-03-07T10:34:17;84.70;;;26.13;;
54561;SDS011;69047;53.358;-1.486;2024-03-07T10:36:45;78.32;;;25.02;;
54561;SDS011;69047;53.358;-1.486;2024-03-07T10:39:11;84.22;;;28.17;;
54561;SDS011;69047;53.358;-1.486;2024-03-07T10:41:48;92.28;;;29.52;;
54561;SDS011;69047;53.358;-1.486;2024-03-07T10:44:20;90.28;;;31.02;;
54561;SDS011;69047;53.358;-1.486;2024-03-07T10:46:54;95.57;;;30.58;;
54561;SDS011;69047;53.358;-1.486;2024-03-07T10:49:22;86.22;;;29.05;;
54561;SDS011;69047;53.358;-1.486;2024-03-07T10:54:39;98.57;;;32.78;;
54561;SDS011;69047;53.358;-1.486;2024-03-07T10:59:57;101.53;;;33.28;;
54561;SDS011;69047;53.358;-1.486;2024-03-07T11:02:43;102.30;;;33.83;;
54561;SDS011;69047;53.358;-1.486;2024-03-07T11:05:12;112.32;;;38.05;;
54561;SDS011;69047;53.358;-1.486;2024-03-07T11:07:40;108.90;;;37.88;;
54561;SDS011;69047;53.358;-1.486;2024-03-07T11:10:06;105.50;;;38.78;;
54561;SDS011;69047;53.358;-1.486;2024-03-07T11:12:36;103.07;;;38.45;;
54561;SDS011;69047;53.358;-1.486;2024-03-07T11:15:09;95.53;;;39.03;;
54561;SDS011;69047;53.358;-1.486;2024-03-07T11:17:54;126.50;;;43.85;;
54561;SDS011;69047;53.358;-1.486;2024-03-07T11:20:24;115.45;;;42.78;;
54561;SDS011;69047;53.358;-1.486;2024-03-07T11:22:51;124.75;;;44.05;;
54561;SDS011;69047;53.358;-1.486;2024-03-07T11:25:20;123.55;;;43.90;;
54561;SDS011;69047;53.358;-1.486;2024-03-07T11:27:53;129.70;;;45.85;;
54561;SDS011;69047;53.358;-1.486;2024-03-07T11:30:20;126.43;;;45.90;;
54561;SDS011;69047;53.358;-1.486;2024-03-07T11:32:47;140.35;;;47.85;;
54561;SDS011;69047;53.358;-1.486;2024-03-07T11:35:18;138.73;;;46.72;;
54561;SDS011;69047;53.358;-1.486;2024-03-07T11:37:59;149.23;;;48.78;;
54561;SDS011;69047;53.358;-1.486;2024-03-07T11:42:53;150.57;;;48.13;;
54561;SDS011;69047;53.358;-1.486;2024-03-07T11:45:28;140.32;;;48.60;;
54561;SDS011;69047;53.358;-1.486;2024-03-07T11:48:03;150.90;;;46.90;;
54561;SDS011;69047;53.358;-1.486;2024-03-07T11:50:33;161.50;;;50.72;;
54561;SDS011;69047;53.358;-1.486;2024-03-07T11:53:02;167.02;;;48.33;;
54561;SDS011;69047;53.358;-1.486;2024-03-07T11:55:32;174.35;;;52.47;;
54561;SDS011;69047;53.358;-1.486;2024-03-07T11:58:07;170.52;;;50.80;;
54561;SDS011;69047;53.358;-1.486;2024-03-07T12:00:37;171.95;;;52.40;;
54561;SDS011;69047;53.358;-1.486;2024-03-07T12:03:13;157.80;;;50.05;;
54561;SDS011;69047;53.358;-1.486;2024-03-07T12:05:42;167.68;;;55.42;;
54561;SDS011;69047;53.358;-1.486;2024-03-07T12:08:10;177.63;;;55.28;;
54561;SDS011;69047;53.358;-1.486;2024-03-07T12:10:40;181.68;;;57.72;;
54561;SDS011;69047;53.358;-1.486;2024-03-07T12:13:12;187.23;;;55.65;;
54561;SDS011;69047;53.358;-1.486;2024-03-07T12:15:41;172.95;;;55.22;;
54561;SDS011;69047;53.358;-1.486;2024-03-07T12:18:08;185.15;;;57.85;;
54561;SDS011;69047;53.358;-1.486;2024-03-07T12:20:38;181.68;;;53.42;;
54561;SDS011;69047;53.358;-1.486;2024-03-07T12:23:06;175.90;;;55.28;;
54561;SDS011;69047;53.358;-1.486;2024-03-07T12:25:34;171.27;;;52.60;;
54561;SDS011;69047;53.358;-1.486;2024-03-07T12:30:31;188.98;;;63.20;;
54561;SDS011;69047;53.358;-1.486;2024-03-07T12:32:58;158.43;;;58.85;;
54561;SDS011;69047;53.358;-1.486;2024-03-07T12:35:25;165.85;;;58.65;;
54561;SDS011;69047;53.358;-1.486;2024-03-07T12:37:51;170.27;;;58.60;;
54561;SDS011;69047;53.358;-1.486;2024-03-07T12:40:19;163.00;;;59.65;;
54561;SDS011;69047;53.358;-1.486;2024-03-07T12:42:48;150.98;;;53.85;;
54561;SDS011;69047;53.358;-1.486;2024-03-07T12:45:17;160.07;;;56.85;;
54561;SDS011;69047;53.358;-1.486;2024-03-07T12:47:46;156.82;;;55.35;;
54561;SDS011;69047;53.358;-1.486;2024-03-07T12:50:15;166.05;;;64.22;;
54561;SDS011;69047;53.358;-1.486;2024-03-07T12:52:41;146.85;;;54.15;;
54561;SDS011;69047;53.358;-1.486;2024-03-07T12:55:07;156.60;;;57.95;;
54561;SDS011;69047;53.358;-1.486;2024-03-07T12:57:32;139.50;;;55.50;;
54561;SDS011;69047;53.358;-1.486;2024-03-07T12:59:58;138.75;;;52.45;;
54561;SDS011;69047;53.358;-1.486;2024-03-07T13:02:23;132.50;;;52.53;;
54561;SDS011;69047;53.358;-1.486;2024-03-07T13:04:52;138.32;;;51.13;;
54561;SDS011;69047;53.358;-1.486;2024-03-07T13:07:18;135.38;;;53.22;;
54561;SDS011;69047;53.358;-1.486;2024-03-07T13:09:43;126.65;;;48.67;;
54561;SDS011;69047;53.358;-1.486;2024-03-07T13:12:09;130.65;;;49.92;;
54561;SDS011;69047;53.358;-1.486;2024-03-07T13:14:35;140.05;;;53.25;;
54561;SDS011;69047;53.358;-1.486;2024-03-07T13:17:01;112.47;;;46.55;;
54561;SDS011;69047;53.358;-1.486;2024-03-07T13:19:28;109.28;;;45.10;;
54561;SDS011;69047;53.358;-1.486;2024-03-07T13:21:54;95.28;;;39.05;;
54561;SDS011;69047;53.358;-1.486;2024-03-07T13:24:21;102.95;;;42.85;;
54561;SDS011;69047;53.358;-1.486;2024-03-07T13:26:47;95.95;;;41.60;;
54561;SDS011;69047;53.358;-1.486;2024-03-07T13:29:16;92.53;;;40.22;;
54561;SDS011;69047;53.358;-1.486;2024-03-07T13:31:42;93.28;;;40.90;;
54561;SDS011;69047;53.358;-1.486;2024-03-07T13:34:09;88.15;;;36.65;;
54561;SDS011;69047;53.358;-1.486;2024-03-07T13:36:40;81.35;;;37.33;;
54561;SDS011;69047;53.358;-1.486;2024-03-07T13:39:06;93.22;;;36.72;;
54561;SDS011;69047;53.358;-1.486;2024-03-07T13:41:36;74.40;;;34.50;;
54561;SDS011;69047;53.358;-1.486;2024-03-07T13:44:02;77.90;;;33.42;;
54561;SDS011;69047;53.358;-1.486;2024-03-07T13:46:28;74.68;;;31.48;;
54561;SDS011;69047;53.358;-1.486;2024-03-07T13:48:54;77.15;;;34.08;;
54561;SDS011;69047;53.358;-1.486;2024-03-07T13:51:25;75.70;;;33.13;;
54561;SDS011;69047;53.358;-1.486;2024-03-07T13:53:52;76.20;;;30.50;;
54561;SDS011;69047;53.358;-1.486;2024-03-07T13:56:39;65.68;;;29.85;;
54561;SDS011;69047;53.358;-1.486;2024-03-07T13:59:19;75.35;;;31.20;;
54561;SDS011;69047;53.358;-1.486;2024-03-07T14:02:06;78.28;;;33.80;;
54561;SDS011;69047;53.358;-1.486;2024-03-07T14:30:44;67.70;;;29.48;;
54561;SDS011;69047;53.358;-1.486;2024-03-07T14:33:19;87.53;;;32.20;;
54561;SDS011;69047;53.358;-1.486;2024-03-07T14:36:02;68.97;;;30.20;;
54561;SDS011;69047;53.358;-1.486;2024-03-07T14:41:06;77.13;;;34.10;;
54561;SDS011;69047;53.358;-1.486;2024-03-07T14:43:34;74.72;;;32.80;;
54561;SDS011;69047;53.358;-1.486;2024-03-07T14:45:59;73.55;;;32.10;;
54561;SDS011;69047;53.358;-1.486;2024-03-07T14:48:25;75.28;;;33.08;;
54561;SDS011;69047;53.358;-1.486;2024-03-07T14:50:50;71.78;;;32.90;;